Nearby METAR Reports

 

KISP - Islip, New York, USA
Distance from station: SW 4mi, 6km
Updated: Mon, 01/27/2020 7:56 pm EST
Overcast
Overcast
 Wind from WNW
Wind: WNW 14 mph , 22 km/h
Temperature: 41°F , 5°C
Wind Chill: 33°F , 1°C
Dew Point: 28°F , -2°C
Humidity: 61%
Barometer: 29.70 inHg , 1005.8 hPa
Clouds: Overcast
Visibility: 10 miles , 16 km
Cloud details: Overcast 6000 ft
2020/01/28 00:56 KISP 280056Z 29012KT 10SM OVC060 05/M02 A2970 RMK SLP059 T00501022
KHWV - Shirley, New York, USA
Distance from station: E 10mi, 16km
Updated: Mon, 01/27/2020 6:56 pm EST
NOT Current
Overcast
Overcast
 Wind from WNW
Wind: WNW 10 mph , 17 km/h
Temperature: 43°F , 6°C
Wind Chill: 37°F , 3°C
Dew Point: 27°F , -3°C
Humidity: 53%
Barometer: 29.70 inHg , 1005.8 hPa
Clouds: Overcast
Visibility: 10 miles , 16 km
Cloud details: Overcast 6000 ft
2020/01/27 23:56 KHWV 272356Z AUTO 30009KT 10SM OVC060 06/M03 A2970 RMK AO2 SLP056 T00611028 10083 20061 52018 TSNO
 
KFRG - Farmingdale, New York, USA
Distance from station: WSW 20mi, 33km
Updated: Mon, 01/27/2020 7:53 pm EST
Overcast
Overcast
 Wind from WNW
Wind: WNW 8 mph , 13 km/h
Temperature: 43°F , 6°C
Wind Chill: 38°F , 3°C
Dew Point: 27°F , -3°C
Humidity: 53%
Barometer: 29.72 inHg , 1006.4 hPa
Clouds: Overcast
Visibility: 10 miles , 16 km
Cloud details: Overcast 6000 ft
2020/01/28 00:53 KFRG 280053Z 30007KT 10SM OVC060 06/M03 A2972 RMK AO2 SLP063 T00611028
KBDR - Bridgeport, Connecticut, USA
Distance from station: N 23mi, 37km
Updated: Mon, 01/27/2020 7:52 pm EST
Overcast
Overcast
 Wind from W
Wind: W 7 mph , 11 km/h
Temperature: 43°F , 6°C
Wind Chill: 39°F , 4°C
Dew Point: 28°F , -2°C
Humidity: 57%
Barometer: 29.70 inHg , 1005.8 hPa
Clouds: Overcast
Visibility: 10 miles , 16 km
Cloud details: Overcast 5000 ft
2020/01/28 00:52 KBDR 280052Z 28006KT 10SM OVC050 06/M02 A2970 RMK AO2 SLP058 T00561022
 
KFOK - Westhampton Beac, New York, USA
Distance from station: E 23mi, 37km
Updated: Mon, 01/27/2020 7:53 pm EST
Overcast
Overcast
 Wind from NW
Wind: NW 9 mph , 15 km/h
Temperature: 41°F , 5°C
Wind Chill: 35°F , 2°C
Dew Point: 27°F , -3°C
Humidity: 57%
Barometer: 29.71 inHg , 1006.1 hPa
Clouds: Overcast
Visibility: 10SM miles , 16 km
Cloud details: Overcast 6000 ft
2020/01/28 00:53 KFOK 280053Z 31008KT 10SMSM OVC060 05/M03 A2971
KHVN - New Haven/Tweed, Connecticut, USA
Distance from station: NNE 31mi, 50km
Updated: Mon, 01/27/2020 7:53 pm EST
Overcast
Overcast
 Wind from WNW
Wind: WNW 5 mph , 7 km/h
Temperature: 43°F , 6°C
Wind Chill: 40°F , 4°C
Dew Point: 30°F , -1°C
Humidity: 61%
Barometer: 29.69 inHg , 1005.4 hPa
Clouds: Overcast
Visibility: 10 miles , 16 km
Cloud details: Overcast 6000 ft
2020/01/28 00:53 KHVN 280053Z 29004KT 10SM OVC060 06/M01 A2969 RMK AO2 SLP053 T00611011 $
 
KHPN - White Plains, New York, USA
Distance from station: WNW 37mi, 60km
Updated: Mon, 01/27/2020 6:56 pm EST
NOT Current
Mostly cloudy
Mostly cloudy
 Wind from WNW
Wind: WNW 12 mph , 19 km/h
Temperature: 39°F , 4°C
Wind Chill: 32°F , 0°C
Dew Point: 27°F , -3°C
Humidity: 61%
Barometer: 29.69 inHg , 1005.4 hPa
Clouds: Mostly cloudy
Visibility: 10 miles , 16 km
Cloud details: Mostly cloudy 5500 ft
2020/01/27 23:56 KHPN 272356Z 29010KT 10SM BKN055 04/M03 A2969 RMK AO2 SLP058 T00391033 10056 20039 51016
KJFK - Nyc/Jfk Arpt, New York, USA
Distance from station: WSW 40mi, 64km
Updated: Mon, 01/27/2020 7:51 pm EST
Overcast
Overcast
 Wind from WNW
Wind: WNW 14 mph , 22 km/h
Temperature: 43°F , 6°C
Wind Chill: 36°F , 2°C
Dew Point: 28°F , -2°C
Humidity: 57%
Barometer: 29.74 inHg , 1007.1 hPa
Clouds: Overcast
Visibility: 10 miles , 16 km
Cloud details: Few Clouds 4000 ft
Overcast 5500 ft
2020/01/28 00:51 KJFK 280051Z 30012KT 10SM FEW040 OVC055 06/M02 A2974 RMK AO2 SLP069 T00611022 $
 
KDXR - Danbury, Connecticut, USA
Distance from station: NNW 42mi, 68km
Updated: Mon, 01/27/2020 7:53 pm EST
Overcast
Overcast
 Wind from W
Wind: W 6 mph , 9 km/h
Temperature: 37°F , 3°C
Wind Chill: 32°F , 0°C
Dew Point: 27°F , -3°C
Humidity: 65%
Barometer: 29.70 inHg , 1005.8 hPa
Clouds: Overcast
Visibility: 10 miles , 16 km
Cloud details: Overcast 5000 ft
2020/01/28 00:53 KDXR 280053Z 26005KT 10SM OVC050 03/M03 A2970 RMK AO2 SLP059 T00331028
KHTO - East Hampton, New York, USA
Distance from station: E 43mi, 69km
Updated: Mon, 01/27/2020 8:15 pm EST
Overcast
Overcast
 Wind from WNW
Wind: WNW 6 mph , 9 km/h
Temperature: 41°F , 5°C
Wind Chill: 37°F , 3°C
Dew Point: 30°F , -1°C
Humidity: 66%
Barometer: 29.69 inHg , 1005.4 hPa
Clouds: Overcast
Visibility: 10 miles , 16 km
Cloud details: Overcast 6000 ft
2020/01/28 01:15 KHTO 280115Z AUTO 30005KT 10SM OVC060 05/M01 A2969 RMK AO2 T00451013
 
KOXC - Oxford/Waterbury, Connecticut, USA
Distance from station: N 43mi, 70km
Updated: Mon, 01/27/2020 7:51 pm EST
Overcast
Overcast
 Wind from varies
Wind: varies 6 mph , 9 km/h
Temperature: 37°F , 3°C
Wind Chill: 32°F , 0°C
Dew Point: 28°F , -2°C
Humidity: 70%
Barometer: 29.68 inHg , 1005.1 hPa
Clouds: Overcast
Visibility: 10 miles , 16 km
Cloud details: Mostly cloudy 3300 ft
Mostly cloudy 4100 ft
Overcast 4900 ft
2020/01/28 00:51 KOXC 280051Z VRB05KT 10SM BKN033 BKN041 OVC049 03/M02 A2968 RMK AO2 SLP068 T00331017
KLGA - Nyc/La Guardia, New York, USA
Distance from station: W 44mi, 70km
Updated: Mon, 01/27/2020 7:51 pm EST
Overcast
Overcast
 Wind from NW
Wind: NW 13 mph , 20 km/h
Temperature: 43°F , 6°C
Wind Chill: 36°F , 2°C
Dew Point: 27°F , -3°C
Humidity: 53%
Barometer: 29.73 inHg , 1006.8 hPa
Clouds: Overcast
Visibility: 10 miles , 16 km
Cloud details: Overcast 6000 ft
2020/01/28 00:51 KLGA 280051Z 31011KT 10SM OVC060 06/M03 A2973 RMK AO2 SLP066 T00561028
 
KSNC - Chester, Connecticut, USA
Distance from station: NE 47mi, 76km
Updated: Mon, 01/27/2020 8:15 pm EST
Overcast
Overcast
 Wind from WNW
Wind: WNW 7 mph , 11 km/h
Temperature: 41°F , 5°C
Wind Chill: 36°F , 2°C
Dew Point: 28°F , -2°C
Humidity: 61%
Barometer: 29.67 inHg , 1004.7 hPa
Clouds: Overcast
Visibility: 10 miles , 16 km
Cloud details: Overcast 6000 ft
2020/01/28 01:15 KSNC 280115Z AUTO 30006KT 10SM OVC060 05/M02 A2967 RMK AO2
KMMK - Meriden, Connecticut, USA
Distance from station: NNE 48mi, 77km
Updated: Mon, 01/27/2020 7:53 pm EST
Overcast
Overcast
 Wind from WNW
Wind: WNW 8 mph , 13 km/h
Temperature: 39°F , 4°C
Wind Chill: 33°F , 1°C
Dew Point: 28°F , -2°C
Humidity: 65%
Barometer: 29.69 inHg , 1005.4 hPa
Clouds: Overcast
Visibility: 10 miles , 16 km
Cloud details: Few Clouds 4900 ft
Overcast 6500 ft
2020/01/28 00:53 KMMK 280053Z AUTO 30007KT 10SM FEW049 OVC065 04/M02 A2969 RMK AO2 SLP055 T00441022
 
KNYC - Nyc/Central Park, New York, USA
Distance from station: W 48mi, 77km
Updated: Mon, 01/27/2020 7:51 pm EST
Overcast
Overcast
 
Temperature: 43°F , 6°C
Dew Point: 27°F , -3°C
Humidity: 53%
Barometer: 29.75 inHg , 1007.5 hPa
Clouds: Overcast
Visibility: 10 miles , 16 km
Cloud details: Overcast 5500 ft
2020/01/28 00:51 KNYC 280051Z AUTO 10SM OVC055 06/M03 A2975 RMK AO2 SLP065 T00611033 $